Aeroporto :
LOGIN :

Iscrizione | Disclaimer

   EN    FR    IT 

 










Sommario :    VFR   VFR Marginale   IFR   IFR Intensivo   IFR Molto Intensivo
Visibilità : 
Base nubi : 
>= 8 km
>= 3000ft
5 / 8 km
1000 / 3000 ft
1500m / 5 km
500 / 1000 ft
800 / 1500m
200 / 500 ft
< 800m
< 200 ft
Simboli :   Temporali  Nebbia  Neve Forte  Precipitazioni Forti  Vento > 20 kt
SIGMETs :   Varie  Temporali  Ghiacco  Turbolenza  Onda orograficha  Ceneri Vulcaniche






- Altitudine del aeroporto : 34 ft
- Codice IATA : BLK


EGNH - Blackpool

ULTIMO METAR :
  • 221950Z 10012KT 9999 -RA FEW022 SCT026 BKN038 08/06 Q0994 WS RWY10

METARs OBSOLETI :
  • 221850Z 11012KT 9999 -RA SCT024 BKN031 08/06 Q0994 WS RWY10
  • 221820Z 11012KT 9999 -RA SCT025 BKN039 08/06 Q0994 WS RWY10
  • 221750Z 11011KT 9999 -RA SCT016 BKN032 08/06 Q0994 WS RWY10
  • 221720Z 10010KT 9999 -RA SCT015 BKN042 07/06 Q0994 WS RWY10

TAF TAF EGNH
Valido dal 22 a 18 ore il 22 a 21 ore UTC


221701Z 2218/2221 09010KT 9999 SCT014
TEMPO 2218/2221 6000 RA BKN014
ATIS : +44 1253 343 434 (x8315)



MetMap, La meteo Aeronautica in un colpo d'occhio ! - Copyright ORBIFLY Dicembre 2007 - Disclaimer

ORBIFLY MET'MAP TEAM :

Programmazione e sviluppo : Alexandra Zaïnal
Concezione e sviluppo : Baudouin d'Aumeries
Co-Programmazione e sviluppo : Marc-Olivier Méhu
Supporto tecnico e logistico : Manuel Goepfert
Aiuto per la traduzione : Arnaldo La Scala

Contatto : metmap@orbifly.com




FONTI E CREDITI :

   NOAA